sensor_id;sensor_type;location;lat;lon;timestamp;pressure;altitude;pressure_sealevel;temperature;humidity
76022;BME280;64718;52.124;6.226;2023-03-23T00:01:46;100261.66;;;10.51;100.00
76022;BME280;64718;52.124;6.226;2023-03-23T00:04:15;100261.47;;;10.54;100.00
76022;BME280;64718;52.124;6.226;2023-03-23T00:06:41;100250.25;;;10.54;100.00
76022;BME280;64718;52.124;6.226;2023-03-23T00:09:12;100256.38;;;10.53;100.00
76022;BME280;64718;52.124;6.226;2023-03-23T00:11:40;100249.72;;;10.47;100.00
76022;BME280;64718;52.124;6.226;2023-03-23T00:14:08;100256.59;;;10.48;100.00
76022;BME280;64718;52.124;6.226;2023-03-23T00:16:39;100247.03;;;10.49;100.00
76022;BME280;64718;52.124;6.226;2023-03-23T00:19:07;100242.84;;;10.46;100.00
76022;BME280;64718;52.124;6.226;2023-03-23T00:21:35;100248.88;;;10.47;100.00
76022;BME280;64718;52.124;6.226;2023-03-23T00:24:05;100243.44;;;10.51;100.00
76022;BME280;64718;52.124;6.226;2023-03-23T00:26:34;100237.31;;;10.52;100.00
76022;BME280;64718;52.124;6.226;2023-03-23T00:29:02;100234.81;;;10.51;100.00
76022;BME280;64718;52.124;6.226;2023-03-23T00:31:30;100233.13;;;10.50;100.00
76022;BME280;64718;52.124;6.226;2023-03-23T00:33:58;100241.84;;;10.49;100.00
76022;BME280;64718;52.124;6.226;2023-03-23T00:36:26;100243.13;;;10.57;100.00
76022;BME280;64718;52.124;6.226;2023-03-23T00:38:54;100239.25;;;10.49;100.00
76022;BME280;64718;52.124;6.226;2023-03-23T00:41:23;100237.56;;;10.48;100.00
76022;BME280;64718;52.124;6.226;2023-03-23T00:43:53;100228.00;;;10.48;100.00
76022;BME280;64718;52.124;6.226;2023-03-23T00:46:20;100232.28;;;10.49;100.00
76022;BME280;64718;52.124;6.226;2023-03-23T00:48:47;100244.59;;;10.45;100.00
76022;BME280;64718;52.124;6.226;2023-03-23T00:51:16;100236.81;;;10.45;100.00
76022;BME280;64718;52.124;6.226;2023-03-23T00:53:43;100244.28;;;10.52;100.00
76022;BME280;64718;52.124;6.226;2023-03-23T00:56:10;100245.47;;;10.62;100.00
76022;BME280;64718;52.124;6.226;2023-03-23T00:58:36;100242.63;;;10.66;100.00
76022;BME280;64718;52.124;6.226;2023-03-23T01:01:05;100240.78;;;10.68;100.00
76022;BME280;64718;52.124;6.226;2023-03-23T01:03:32;100250.28;;;10.69;100.00
76022;BME280;64718;52.124;6.226;2023-03-23T01:06:04;100241.78;;;10.66;100.00
76022;BME280;64718;52.124;6.226;2023-03-23T01:08:31;100246.91;;;10.67;100.00
76022;BME280;64718;52.124;6.226;2023-03-23T01:11:03;100238.09;;;10.54;100.00
76022;BME280;64718;52.124;6.226;2023-03-23T01:13:29;100229.34;;;10.55;100.00
76022;BME280;64718;52.124;6.226;2023-03-23T01:15:56;100223.41;;;10.53;100.00
76022;BME280;64718;52.124;6.226;2023-03-23T01:18:24;100203.59;;;10.51;100.00
76022;BME280;64718;52.124;6.226;2023-03-23T01:20:50;100193.44;;;10.46;100.00
76022;BME280;64718;52.124;6.226;2023-03-23T01:23:17;100181.75;;;10.37;100.00
76022;BME280;64718;52.124;6.226;2023-03-23T01:25:43;100165.69;;;10.47;100.00
76022;BME280;64718;52.124;6.226;2023-03-23T01:28:10;100149.53;;;10.40;100.00
76022;BME280;64718;52.124;6.226;2023-03-23T01:30:37;100158.88;;;10.44;100.00
76022;BME280;64718;52.124;6.226;2023-03-23T01:33:04;100154.75;;;10.40;100.00
76022;BME280;64718;52.124;6.226;2023-03-23T01:35:32;100158.03;;;10.43;100.00
76022;BME280;64718;52.124;6.226;2023-03-23T01:37:58;100169.81;;;10.33;100.00
76022;BME280;64718;52.124;6.226;2023-03-23T01:40:26;100173.34;;;10.32;100.00
76022;BME280;64718;52.124;6.226;2023-03-23T01:42:53;100132.75;;;10.30;100.00
76022;BME280;64718;52.124;6.226;2023-03-23T01:45:30;100127.56;;;10.30;100.00
76022;BME280;64718;52.124;6.226;2023-03-23T01:48:01;100117.66;;;10.36;100.00
76022;BME280;64718;52.124;6.226;2023-03-23T01:50:36;100134.03;;;10.38;100.00
76022;BME280;64718;52.124;6.226;2023-03-23T01:53:06;100105.97;;;10.45;100.00
76022;BME280;64718;52.124;6.226;2023-03-23T01:55:36;100114.84;;;10.41;100.00
76022;BME280;64718;52.124;6.226;2023-03-23T01:58:04;100099.09;;;10.44;100.00
76022;BME280;64718;52.124;6.226;2023-03-23T02:00:32;100107.94;;;10.40;100.00
76022;BME280;64718;52.124;6.226;2023-03-23T02:03:00;100120.28;;;10.36;100.00
76022;BME280;64718;52.124;6.226;2023-03-23T02:05:30;100109.72;;;10.39;100.00
76022;BME280;64718;52.124;6.226;2023-03-23T02:08:02;100110.63;;;10.38;100.00
76022;BME280;64718;52.124;6.226;2023-03-23T02:10:31;100123.53;;;10.40;100.00
76022;BME280;64718;52.124;6.226;2023-03-23T02:12:58;100123.78;;;10.35;100.00
76022;BME280;64718;52.124;6.226;2023-03-23T02:15:28;100120.34;;;10.35;100.00
76022;BME280;64718;52.124;6.226;2023-03-23T02:18:05;100122.03;;;10.36;100.00
76022;BME280;64718;52.124;6.226;2023-03-23T02:20:43;100129.16;;;10.32;100.00
76022;BME280;64718;52.124;6.226;2023-03-23T02:23:32;100126.47;;;10.34;100.00
76022;BME280;64718;52.124;6.226;2023-03-23T02:26:12;100117.91;;;10.32;100.00
76022;BME280;64718;52.124;6.226;2023-03-23T02:29:00;100112.09;;;10.44;100.00
76022;BME280;64718;52.124;6.226;2023-03-23T02:31:43;100097.84;;;10.51;100.00
76022;BME280;64718;52.124;6.226;2023-03-23T02:34:16;100092.63;;;10.51;100.00
76022;BME280;64718;52.124;6.226;2023-03-23T02:36:47;100094.72;;;10.44;100.00
76022;BME280;64718;52.124;6.226;2023-03-23T02:39:20;100098.56;;;10.37;100.00
76022;BME280;64718;52.124;6.226;2023-03-23T02:41:51;100099.19;;;10.42;100.00
76022;BME280;64718;52.124;6.226;2023-03-23T02:44:20;100089.69;;;10.41;100.00
76022;BME280;64718;52.124;6.226;2023-03-23T02:46:48;100094.66;;;10.46;100.00
76022;BME280;64718;52.124;6.226;2023-03-23T02:49:17;100093.72;;;10.47;100.00
76022;BME280;64718;52.124;6.226;2023-03-23T02:51:48;100105.97;;;10.61;100.00
76022;BME280;64718;52.124;6.226;2023-03-23T02:54:18;100105.22;;;10.74;100.00
76022;BME280;64718;52.124;6.226;2023-03-23T02:56:45;100101.44;;;10.80;100.00
76022;BME280;64718;52.124;6.226;2023-03-23T02:59:13;100096.91;;;10.84;100.00
76022;BME280;64718;52.124;6.226;2023-03-23T03:02:07;100096.06;;;10.83;100.00
76022;BME280;64718;52.124;6.226;2023-03-23T03:04:38;100093.53;;;10.82;100.00
76022;BME280;64718;52.124;6.226;2023-03-23T03:07:19;100090.28;;;10.78;100.00
76022;BME280;64718;52.124;6.226;2023-03-23T03:09:52;100086.84;;;10.77;100.00
76022;BME280;64718;52.124;6.226;2023-03-23T03:12:26;100080.44;;;10.83;100.00
76022;BME280;64718;52.124;6.226;2023-03-23T03:15:09;100091.53;;;10.87;100.00
76022;BME280;64718;52.124;6.226;2023-03-23T03:17:41;100093.47;;;10.83;100.00
76022;BME280;64718;52.124;6.226;2023-03-23T03:20:13;100097.66;;;10.86;100.00
76022;BME280;64718;52.124;6.226;2023-03-23T03:22:43;100107.06;;;10.88;100.00
76022;BME280;64718;52.124;6.226;2023-03-23T03:25:12;100113.59;;;10.95;100.00
76022;BME280;64718;52.124;6.226;2023-03-23T03:27:42;100101.28;;;10.99;100.00
76022;BME280;64718;52.124;6.226;2023-03-23T03:30:12;100091.69;;;10.84;100.00
76022;BME280;64718;52.124;6.226;2023-03-23T03:32:44;100092.69;;;10.97;100.00
76022;BME280;64718;52.124;6.226;2023-03-23T03:35:15;100074.81;;;10.91;100.00
76022;BME280;64718;52.124;6.226;2023-03-23T03:37:42;100085.06;;;10.94;100.00
76022;BME280;64718;52.124;6.226;2023-03-23T03:40:10;100087.56;;;10.95;100.00
76022;BME280;64718;52.124;6.226;2023-03-23T03:42:38;100085.13;;;10.92;100.00
76022;BME280;64718;52.124;6.226;2023-03-23T03:45:06;100088.41;;;10.96;100.00
76022;BME280;64718;52.124;6.226;2023-03-23T03:47:34;100086.50;;;10.99;100.00
76022;BME280;64718;52.124;6.226;2023-03-23T03:50:00;100083.81;;;11.01;100.00
76022;BME280;64718;52.124;6.226;2023-03-23T03:52:28;100085.66;;;10.99;100.00
76022;BME280;64718;52.124;6.226;2023-03-23T03:54:55;100084.38;;;10.90;100.00
76022;BME280;64718;52.124;6.226;2023-03-23T03:57:22;100074.31;;;10.84;100.00
76022;BME280;64718;52.124;6.226;2023-03-23T03:59:48;100083.56;;;10.74;100.00
76022;BME280;64718;52.124;6.226;2023-03-23T04:02:16;100087.94;;;10.73;100.00
76022;BME280;64718;52.124;6.226;2023-03-23T04:04:45;100076.19;;;10.66;100.00
76022;BME280;64718;52.124;6.226;2023-03-23T04:07:12;100073.75;;;10.63;100.00
76022;BME280;64718;52.124;6.226;2023-03-23T04:09:40;100076.69;;;10.57;100.00
76022;BME280;64718;52.124;6.226;2023-03-23T04:12:07;100086.19;;;10.58;100.00
76022;BME280;64718;52.124;6.226;2023-03-23T04:14:33;100075.09;;;10.55;100.00
76022;BME280;64718;52.124;6.226;2023-03-23T04:17:01;100083.75;;;10.55;100.00
76022;BME280;64718;52.124;6.226;2023-03-23T04:19:27;100087.28;;;10.54;100.00
76022;BME280;64718;52.124;6.226;2023-03-23T04:21:58;100090.03;;;10.67;100.00
76022;BME280;64718;52.124;6.226;2023-03-23T04:24:24;100083.84;;;10.54;100.00
76022;BME280;64718;52.124;6.226;2023-03-23T04:26:54;100075.19;;;10.69;100.00
76022;BME280;64718;52.124;6.226;2023-03-23T04:29:21;100076.69;;;10.57;100.00
76022;BME280;64718;52.124;6.226;2023-03-23T04:31:47;100072.84;;;10.64;100.00
76022;BME280;64718;52.124;6.226;2023-03-23T04:34:16;100074.16;;;10.71;100.00
76022;BME280;64718;52.124;6.226;2023-03-23T04:36:43;100087.94;;;10.73;100.00
76022;BME280;64718;52.124;6.226;2023-03-23T04:39:09;100076.59;;;10.74;100.00
76022;BME280;64718;52.124;6.226;2023-03-23T04:41:36;100080.03;;;10.75;100.00
76022;BME280;64718;52.124;6.226;2023-03-23T04:44:05;100084.22;;;10.77;100.00
76022;BME280;64718;52.124;6.226;2023-03-23T04:46:32;100083.31;;;10.63;100.00
76022;BME280;64718;52.124;6.226;2023-03-23T04:48:59;100091.47;;;10.72;100.00
76022;BME280;64718;52.124;6.226;2023-03-23T04:51:28;100096.91;;;10.84;100.00
76022;BME280;64718;52.124;6.226;2023-03-23T04:53:56;100093.19;;;10.88;100.00
76022;BME280;64718;52.124;6.226;2023-03-23T04:56:23;100093.28;;;10.86;100.00
76022;BME280;64718;52.124;6.226;2023-03-23T04:58:49;100090.44;;;10.91;100.00
76022;BME280;64718;52.124;6.226;2023-03-23T05:01:18;100098.66;;;10.99;100.00
76022;BME280;64718;52.124;6.226;2023-03-23T05:03:44;100096.72;;;11.02;100.00
76022;BME280;64718;52.124;6.226;2023-03-23T05:06:11;100100.94;;;11.05;100.00
76022;BME280;64718;52.124;6.226;2023-03-23T05:08:37;100105.22;;;11.06;100.00
76022;BME280;64718;52.124;6.226;2023-03-23T05:11:05;100098.59;;;11.00;100.00
76022;BME280;64718;52.124;6.226;2023-03-23T05:13:33;100099.41;;;11.01;100.00
76022;BME280;64718;52.124;6.226;2023-03-23T05:16:03;100105.56;;;11.00;100.00
76022;BME280;64718;52.124;6.226;2023-03-23T05:18:31;100106.38;;;11.00;100.00
76022;BME280;64718;52.124;6.226;2023-03-23T05:20:59;100113.19;;;11.03;100.00
76022;BME280;64718;52.124;6.226;2023-03-23T05:23:27;100103.63;;;11.03;100.00
76022;BME280;64718;52.124;6.226;2023-03-23T05:25:56;100107.31;;;10.99;100.00
76022;BME280;64718;52.124;6.226;2023-03-23T05:28:25;100105.63;;;10.98;100.00
76022;BME280;64718;52.124;6.226;2023-03-23T05:30:52;100109.75;;;11.02;100.00
76022;BME280;64718;52.124;6.226;2023-03-23T05:33:19;100112.25;;;11.04;100.00
76022;BME280;64718;52.124;6.226;2023-03-23T05:35:47;100118.69;;;10.97;100.00
76022;BME280;64718;52.124;6.226;2023-03-23T05:38:13;100113.28;;;11.01;100.00
76022;BME280;64718;52.124;6.226;2023-03-23T05:40:41;100116.19;;;10.95;100.00
76022;BME280;64718;52.124;6.226;2023-03-23T05:43:07;100121.38;;;10.95;100.00
76022;BME280;64718;52.124;6.226;2023-03-23T05:45:34;100112.66;;;10.96;100.00
76022;BME280;64718;52.124;6.226;2023-03-23T05:48:01;100112.34;;;11.02;100.00
76022;BME280;64718;52.124;6.226;2023-03-23T05:50:27;100107.72;;;11.07;100.00
76022;BME280;64718;52.124;6.226;2023-03-23T05:52:55;100120.91;;;11.04;100.00
76022;BME280;64718;52.124;6.226;2023-03-23T05:55:22;100123.91;;;10.97;100.00
76022;BME280;64718;52.124;6.226;2023-03-23T05:57:49;100115.88;;;11.01;100.00
76022;BME280;64718;52.124;6.226;2023-03-23T06:00:15;100116.03;;;10.98;100.00
76022;BME280;64718;52.124;6.226;2023-03-23T06:02:46;100123.69;;;11.01;100.00
76022;BME280;64718;52.124;6.226;2023-03-23T06:05:13;100124.34;;;11.05;100.00
76022;BME280;64718;52.124;6.226;2023-03-23T06:07:41;100131.97;;;11.08;100.00
76022;BME280;64718;52.124;6.226;2023-03-23T06:10:10;100129.78;;;11.16;100.00
76022;BME280;64718;52.124;6.226;2023-03-23T06:12:37;100134.06;;;11.17;100.00
76022;BME280;64718;52.124;6.226;2023-03-23T06:15:04;100126.75;;;11.24;100.00
76022;BME280;64718;52.124;6.226;2023-03-23T06:17:32;100133.00;;;11.35;100.00
76022;BME280;64718;52.124;6.226;2023-03-23T06:19:58;100133.84;;;11.36;100.00
76022;BME280;64718;52.124;6.226;2023-03-23T06:22:25;100140.81;;;11.35;100.00
76022;BME280;64718;52.124;6.226;2023-03-23T06:24:51;100140.16;;;11.32;100.00
76022;BME280;64718;52.124;6.226;2023-03-23T06:27:19;100140.81;;;11.35;100.00
76022;BME280;64718;52.124;6.226;2023-03-23T06:29:46;100146.59;;;11.40;100.00
76022;BME280;64718;52.124;6.226;2023-03-23T06:32:14;100145.03;;;11.38;100.00
76022;BME280;64718;52.124;6.226;2023-03-23T06:34:41;100149.88;;;11.44;100.00
76022;BME280;64718;52.124;6.226;2023-03-23T06:37:08;100152.31;;;11.47;100.00
76022;BME280;64718;52.124;6.226;2023-03-23T06:39:35;100150.34;;;11.51;100.00
76022;BME280;64718;52.124;6.226;2023-03-23T06:42:03;100143.22;;;11.54;100.00
76022;BME280;64718;52.124;6.226;2023-03-23T06:44:31;100165.31;;;11.63;100.00
76022;BME280;64718;52.124;6.226;2023-03-23T06:46:58;100161.78;;;11.64;100.00
76022;BME280;64718;52.124;6.226;2023-03-23T06:49:25;100153.22;;;11.62;100.00
76022;BME280;64718;52.124;6.226;2023-03-23T06:51:52;100155.31;;;11.55;100.00
76022;BME280;64718;52.124;6.226;2023-03-23T06:54:21;100154.72;;;11.50;100.00
76022;BME280;64718;52.124;6.226;2023-03-23T06:56:47;100155.75;;;11.48;100.00
76022;BME280;64718;52.124;6.226;2023-03-23T06:59:14;100166.25;;;11.46;100.00
76022;BME280;64718;52.124;6.226;2023-03-23T07:01:42;100159.19;;;11.48;100.00
76022;BME280;64718;52.124;6.226;2023-03-23T07:04:09;100181.03;;;11.46;100.00
76022;BME280;64718;52.124;6.226;2023-03-23T07:06:36;100177.59;;;11.45;100.00
76022;BME280;64718;52.124;6.226;2023-03-23T07:09:03;100180.84;;;11.49;100.00
76022;BME280;64718;52.124;6.226;2023-03-23T07:11:30;100189.59;;;11.48;100.00
76022;BME280;64718;52.124;6.226;2023-03-23T07:13:56;100188.00;;;11.45;100.00
76022;BME280;64718;52.124;6.226;2023-03-23T07:16:23;100193.78;;;11.50;100.00
76022;BME280;64718;52.124;6.226;2023-03-23T07:18:51;100185.16;;;11.50;100.00
76022;BME280;64718;52.124;6.226;2023-03-23T07:21:17;100182.72;;;11.47;100.00
76022;BME280;64718;52.124;6.226;2023-03-23T07:23:44;100190.53;;;11.47;100.00
76022;BME280;64718;52.124;6.226;2023-03-23T07:26:11;100192.88;;;11.51;100.00
76022;BME280;64718;52.124;6.226;2023-03-23T07:28:38;100190.44;;;11.48;100.00
76022;BME280;64718;52.124;6.226;2023-03-23T07:31:06;100192.03;;;11.51;100.00
76022;BME280;64718;52.124;6.226;2023-03-23T07:33:33;100195.72;;;11.62;100.00
76022;BME280;64718;52.124;6.226;2023-03-23T07:36:02;100191.81;;;11.85;100.00
76022;BME280;64718;52.124;6.226;2023-03-23T07:38:29;100200.41;;;12.01;100.00
76022;BME280;64718;52.124;6.226;2023-03-23T07:40:56;100205.06;;;11.96;100.00
76022;BME280;64718;52.124;6.226;2023-03-23T07:43:23;100200.03;;;11.93;100.00
76022;BME280;64718;52.124;6.226;2023-03-23T07:45:49;100213.72;;;11.97;100.00
76022;BME280;64718;52.124;6.226;2023-03-23T07:48:16;100213.34;;;12.03;100.00
76022;BME280;64718;52.124;6.226;2023-03-23T07:50:42;100213.75;;;12.11;100.00
76022;BME280;64718;52.124;6.226;2023-03-23T07:53:10;100225.28;;;12.07;100.00
76022;BME280;64718;52.124;6.226;2023-03-23T07:55:37;100217.06;;;11.99;100.00
76022;BME280;64718;52.124;6.226;2023-03-23T07:58:03;100226.44;;;11.87;100.00
76022;BME280;64718;52.124;6.226;2023-03-23T08:00:30;100218.97;;;11.81;100.00
76022;BME280;64718;52.124;6.226;2023-03-23T08:02:58;100226.06;;;11.79;100.00
76022;BME280;64718;52.124;6.226;2023-03-23T08:05:26;100233.94;;;11.78;100.00
76022;BME280;64718;52.124;6.226;2023-03-23T08:07:54;100224.38;;;11.78;100.00
76022;BME280;64718;52.124;6.226;2023-03-23T08:10:23;100236.69;;;11.75;100.00
76022;BME280;64718;52.124;6.226;2023-03-23T08:12:51;100244.03;;;11.68;100.00
76022;BME280;64718;52.124;6.226;2023-03-23T08:15:19;100239.66;;;11.68;100.00
76022;BME280;64718;52.124;6.226;2023-03-23T08:17:46;100245.88;;;11.66;100.00
76022;BME280;64718;52.124;6.226;2023-03-23T08:20:13;100243.44;;;11.63;100.00
76022;BME280;64718;52.124;6.226;2023-03-23T08:22:42;100260.84;;;11.62;100.00
76022;BME280;64718;52.124;6.226;2023-03-23T08:25:12;100268.41;;;11.67;100.00
76022;BME280;64718;52.124;6.226;2023-03-23T08:27:41;100259.56;;;11.69;100.00
76022;BME280;64718;52.124;6.226;2023-03-23T08:30:09;100270.91;;;11.68;100.00
76022;BME280;64718;52.124;6.226;2023-03-23T08:32:36;100273.34;;;11.71;100.00
76022;BME280;64718;52.124;6.226;2023-03-23T08:35:04;100265.38;;;11.75;100.00
76022;BME280;64718;52.124;6.226;2023-03-23T08:37:31;100268.72;;;11.77;100.00
76022;BME280;64718;52.124;6.226;2023-03-23T08:39:57;100256.53;;;11.77;100.00
76022;BME280;64718;52.124;6.226;2023-03-23T08:42:24;100265.97;;;11.80;100.00
76022;BME280;64718;52.124;6.226;2023-03-23T08:44:52;100273.69;;;11.81;100.00
76022;BME280;64718;52.124;6.226;2023-03-23T08:47:19;100280.84;;;11.78;100.00
76022;BME280;64718;52.124;6.226;2023-03-23T08:49:45;100291.00;;;11.66;100.00
76022;BME280;64718;52.124;6.226;2023-03-23T08:52:12;100286.38;;;11.56;100.00
76022;BME280;64718;52.124;6.226;2023-03-23T08:54:40;100289.84;;;11.56;100.00
76022;BME280;64718;52.124;6.226;2023-03-23T08:57:12;100275.56;;;11.63;100.00
76022;BME280;64718;52.124;6.226;2023-03-23T08:59:39;100265.53;;;11.56;100.00
76022;BME280;64718;52.124;6.226;2023-03-23T09:02:09;100286.97;;;11.61;100.00
76022;BME280;64718;52.124;6.226;2023-03-23T09:04:37;100285.88;;;11.49;100.00
76022;BME280;64718;52.124;6.226;2023-03-23T09:07:04;100298.88;;;11.49;100.00
76022;BME280;64718;52.124;6.226;2023-03-23T09:09:31;100296.66;;;11.59;100.00
76022;BME280;64718;52.124;6.226;2023-03-23T09:11:59;100303.38;;;11.63;100.00
76022;BME280;64718;52.124;6.226;2023-03-23T09:14:26;100292.03;;;11.80;100.00
76022;BME280;64718;52.124;6.226;2023-03-23T09:16:53;100300.16;;;11.73;100.00
76022;BME280;64718;52.124;6.226;2023-03-23T09:19:20;100302.69;;;11.75;100.00
76022;BME280;64718;52.124;6.226;2023-03-23T09:21:47;100289.50;;;11.78;100.00
76022;BME280;64718;52.124;6.226;2023-03-23T09:24:15;100300.25;;;11.72;100.00
76022;BME280;64718;52.124;6.226;2023-03-23T09:26:42;100297.25;;;11.80;100.00
76022;BME280;64718;52.124;6.226;2023-03-23T09:29:08;100300.25;;;11.88;100.00
76022;BME280;64718;52.124;6.226;2023-03-23T09:31:36;100293.16;;;12.06;100.00
76022;BME280;64718;52.124;6.226;2023-03-23T09:34:03;100301.31;;;12.15;100.00
76022;BME280;64718;52.124;6.226;2023-03-23T09:36:32;100307.00;;;12.22;100.00
76022;BME280;64718;52.124;6.226;2023-03-23T09:38:58;100301.81;;;12.36;100.00
76022;BME280;64718;52.124;6.226;2023-03-23T09:41:44;100306.16;;;12.65;100.00
76022;BME280;64718;52.124;6.226;2023-03-23T09:44:18;100305.84;;;12.56;100.00
76022;BME280;64718;52.124;6.226;2023-03-23T09:46:54;100309.50;;;12.67;100.00
76022;BME280;64718;52.124;6.226;2023-03-23T09:49:23;100315.91;;;12.48;100.00
76022;BME280;64718;52.124;6.226;2023-03-23T09:51:54;100311.63;;;12.47;100.00
76022;BME280;64718;52.124;6.226;2023-03-23T09:54:26;100311.34;;;12.65;100.00
76022;BME280;64718;52.124;6.226;2023-03-23T09:56:54;100321.88;;;12.64;100.00
76022;BME280;64718;52.124;6.226;2023-03-23T09:59:27;100333.59;;;12.87;100.00
76022;BME280;64718;52.124;6.226;2023-03-23T10:02:07;100327.66;;;12.69;100.00
76022;BME280;64718;52.124;6.226;2023-03-23T10:04:38;100330.88;;;12.74;100.00
76022;BME280;64718;52.124;6.226;2023-03-23T10:07:10;100323.41;;;13.11;100.00
76022;BME280;64718;52.124;6.226;2023-03-23T10:09:37;100319.88;;;13.12;100.00
76022;BME280;64718;52.124;6.226;2023-03-23T10:12:12;100339.13;;;13.39;100.00
76022;BME280;64718;52.124;6.226;2023-03-23T10:14:52;100332.75;;;13.43;100.00
76022;BME280;64718;52.124;6.226;2023-03-23T10:17:24;100337.72;;;13.75;100.00
76022;BME280;64718;52.124;6.226;2023-03-23T10:19:56;100334.38;;;13.32;100.00
76022;BME280;64718;52.124;6.226;2023-03-23T10:22:31;100335.19;;;13.46;100.00
76022;BME280;64718;52.124;6.226;2023-03-23T10:25:06;100336.34;;;13.69;100.00
76022;BME280;64718;52.124;6.226;2023-03-23T10:27:44;100337.97;;;13.29;100.00
76022;BME280;64718;52.124;6.226;2023-03-23T10:30:17;100335.00;;;13.49;100.00
76022;BME280;64718;52.124;6.226;2023-03-23T10:32:48;100336.50;;;13.39;100.00
76022;BME280;64718;52.124;6.226;2023-03-23T10:35:19;100332.09;;;13.11;100.00
76022;BME280;64718;52.124;6.226;2023-03-23T10:37:53;100347.03;;;13.23;100.00
76022;BME280;64718;52.124;6.226;2023-03-23T10:40:24;100349.53;;;13.53;98.95
76022;BME280;64718;52.124;6.226;2023-03-23T10:42:52;100340.19;;;14.17;100.00
76022;BME280;64718;52.124;6.226;2023-03-23T10:45:21;100339.97;;;14.08;97.38
76022;BME280;64718;52.124;6.226;2023-03-23T10:47:52;100340.59;;;14.11;97.33
76022;BME280;64718;52.124;6.226;2023-03-23T10:50:24;100342.50;;;14.22;98.33
76022;BME280;64718;52.124;6.226;2023-03-23T10:52:56;100347.13;;;14.58;96.96
76022;BME280;64718;52.124;6.226;2023-03-23T10:55:24;100357.00;;;14.80;94.96
76022;BME280;64718;52.124;6.226;2023-03-23T10:58:02;100347.13;;;14.31;94.74
76022;BME280;64718;52.124;6.226;2023-03-23T11:00:30;100351.00;;;14.52;95.57
76022;BME280;64718;52.124;6.226;2023-03-23T11:02:59;100344.53;;;14.31;92.48
76022;BME280;64718;52.124;6.226;2023-03-23T11:05:36;100342.44;;;14.36;94.52
76022;BME280;64718;52.124;6.226;2023-03-23T11:08:11;100338.59;;;14.02;95.00
76022;BME280;64718;52.124;6.226;2023-03-23T11:10:41;100333.91;;;14.07;94.38
76022;BME280;64718;52.124;6.226;2023-03-23T11:13:13;100347.09;;;14.18;95.45
76022;BME280;64718;52.124;6.226;2023-03-23T11:15:41;100353.28;;;14.17;92.34
76022;BME280;64718;52.124;6.226;2023-03-23T11:18:10;100343.41;;;14.08;94.59
76022;BME280;64718;52.124;6.226;2023-03-23T11:20:40;100349.66;;;13.93;94.73
76022;BME280;64718;52.124;6.226;2023-03-23T11:23:11;100344.06;;;14.12;93.62
76022;BME280;64718;52.124;6.226;2023-03-23T11:25:56;100346.00;;;13.81;89.50
76022;BME280;64718;52.124;6.226;2023-03-23T11:28:27;100340.63;;;14.24;88.62
76022;BME280;64718;52.124;6.226;2023-03-23T11:30:54;100345.34;;;13.92;86.90
76022;BME280;64718;52.124;6.226;2023-03-23T11:33:21;100356.09;;;13.87;88.89
76022;BME280;64718;52.124;6.226;2023-03-23T11:35:52;100358.78;;;13.86;87.62
76022;BME280;64718;52.124;6.226;2023-03-23T11:38:23;100360.78;;;14.09;83.15
76022;BME280;64718;52.124;6.226;2023-03-23T11:40:53;100355.50;;;14.23;84.89
76022;BME280;64718;52.124;6.226;2023-03-23T11:43:21;100355.38;;;14.25;84.24
76022;BME280;64718;52.124;6.226;2023-03-23T11:45:55;100360.44;;;14.68;85.38
76022;BME280;64718;52.124;6.226;2023-03-23T11:48:28;100360.56;;;14.92;84.99
76022;BME280;64718;52.124;6.226;2023-03-23T11:51:00;100353.44;;;14.68;85.61
76022;BME280;64718;52.124;6.226;2023-03-23T11:53:37;100357.72;;;14.57;82.45
76022;BME280;64718;52.124;6.226;2023-03-23T11:56:17;100351.13;;;15.14;82.39
76022;BME280;64718;52.124;6.226;2023-03-23T11:58:45;100349.75;;;15.22;82.98
76022;BME280;64718;52.124;6.226;2023-03-23T12:01:21;100342.84;;;15.21;84.12
76022;BME280;64718;52.124;6.226;2023-03-23T12:04:04;100348.41;;;15.03;85.57
76022;BME280;64718;52.124;6.226;2023-03-23T12:06:41;100362.84;;;14.71;85.05
76022;BME280;64718;52.124;6.226;2023-03-23T12:09:21;100364.31;;;14.35;86.63
76022;BME280;64718;52.124;6.226;2023-03-23T12:12:06;100362.63;;;14.34;87.04
76022;BME280;64718;52.124;6.226;2023-03-23T12:14:41;100359.50;;;14.94;86.65
76022;BME280;64718;52.124;6.226;2023-03-23T12:17:19;100351.44;;;15.10;84.10
76022;BME280;64718;52.124;6.226;2023-03-23T12:19:55;100336.34;;;15.26;82.64
76022;BME280;64718;52.124;6.226;2023-03-23T12:22:34;100342.44;;;14.88;86.12
76022;BME280;64718;52.124;6.226;2023-03-23T12:28:01;100342.31;;;14.52;88.25
76022;BME280;64718;52.124;6.226;2023-03-23T12:30:33;100344.81;;;14.53;90.12
76022;BME280;64718;52.124;6.226;2023-03-23T12:33:13;100335.41;;;14.89;88.63
76022;BME280;64718;52.124;6.226;2023-03-23T12:35:54;100327.34;;;14.92;87.33
76022;BME280;64718;52.124;6.226;2023-03-23T12:38:32;100343.16;;;14.91;89.69
76022;BME280;64718;52.124;6.226;2023-03-23T12:41:12;100361.16;;;14.70;91.79
76022;BME280;64718;52.124;6.226;2023-03-23T12:43:48;100351.59;;;14.43;94.14
76022;BME280;64718;52.124;6.226;2023-03-23T12:46:43;100350.22;;;14.11;98.36
76022;BME280;64718;52.124;6.226;2023-03-23T12:49:16;100346.50;;;13.88;98.78
76022;BME280;64718;52.124;6.226;2023-03-23T12:51:50;100347.78;;;13.95;98.00
76022;BME280;64718;52.124;6.226;2023-03-23T12:54:23;100357.94;;;14.00;98.51
76022;BME280;64718;52.124;6.226;2023-03-23T12:57:00;100357.69;;;13.90;98.56
76022;BME280;64718;52.124;6.226;2023-03-23T12:59:35;100355.47;;;13.70;98.28